SAA234 FAOR-EGLL
Flight info
| Callsign | SAA234 |
|---|---|
| Flight time | N/A |
| Altitude | 31000 |
| Route | NESAN1A NESAN Q40 EVIPI DCT ETMIT UM214 OKLAP/N0496F300 UM214 DUSVA/N0503F320 UM214 RAPOL UA607 VOLDA/N0496F340 UA607 DIR UB730 DJA UA605 TARAT/N0483F360 UA605 CSO UM998 KAMER DCT NAFOQ DCT SURJU DCT PADKO DCT MRM DCT MTL DCT ETREK DCT MADOT DCT MOPEM DCT CACHI DCT AVLON DCT OKRIX DCT BRY DCT CLM DCT KOPOR DCT ABNUR DCT DIMAL DCT ALESO |
| Aircraft | A346/H-SDE2E3FGHIJ3J4J5M1RWXY/LB1D1 |
Departure
| Time | N/A |
|---|---|
| Airport | O.R. Tambo International Airport (FAOR) |
Arrival
| Time | 2026-05-04 09:08 |
|---|---|
| Airport | London Heathrow Airport (EGLL) |
| Time | Latitude | Longitude | Altitude | Speed | Heading |
|---|---|---|---|---|---|
| 2026-05-04 07:08 | 37.65144 | 6.35169 | 34026 ft | 473 kts | 344° |
| 2026-05-04 07:09 | 37.68400 | 6.34541 | 34026 ft | 473 kts | 344° |
| 2026-05-04 07:09 | 37.74901 | 6.33287 | 34027 ft | 473 kts | 344° |
| 2026-05-04 07:10 | 37.81405 | 6.32035 | 34041 ft | 470 kts | 343° |
| 2026-05-04 07:12 | 38.07060 | 6.27065 | 34028 ft | 468 kts | 343° |
| 2026-05-04 07:12 | 38.13506 | 6.25811 | 34020 ft | 468 kts | 343° |
| 2026-05-04 07:13 | 38.19944 | 6.24558 | 34020 ft | 468 kts | 343° |
| 2026-05-04 07:13 | 38.26381 | 6.23302 | 34015 ft | 468 kts | 343° |
| 2026-05-04 07:14 | 38.42482 | 6.20152 | 34011 ft | 468 kts | 343° |
| 2026-05-04 07:15 | 38.48931 | 6.18886 | 34019 ft | 468 kts | 343° |
| 2026-05-04 07:15 | 38.55390 | 6.17618 | 34016 ft | 471 kts | 343° |
| 2026-05-04 07:16 | 38.61863 | 6.16342 | 34015 ft | 471 kts | 343° |
| 2026-05-04 07:16 | 38.68349 | 6.15062 | 34014 ft | 471 kts | 343° |
| 2026-05-04 07:17 | 38.74827 | 6.13785 | 34027 ft | 472 kts | 343° |
| 2026-05-04 07:17 | 38.81340 | 6.12498 | 34020 ft | 473 kts | 343° |
| 2026-05-04 07:18 | 38.87852 | 6.11207 | 34015 ft | 474 kts | 343° |
| 2026-05-04 07:18 | 38.94365 | 6.09917 | 34015 ft | 474 kts | 343° |
| 2026-05-04 07:19 | 39.00869 | 6.08630 | 34019 ft | 475 kts | 343° |
| 2026-05-04 07:19 | 39.07471 | 6.07442 | 34019 ft | 480 kts | 343° |
| 2026-05-04 07:20 | 39.14093 | 6.06291 | 34017 ft | 481 kts | 343° |
| 2026-05-04 07:20 | 39.19604 | 6.05329 | 34048 ft | 481 kts | 343° |
| 2026-05-04 07:22 | 39.46056 | 6.00667 | 34032 ft | 480 kts | 343° |
| 2026-05-04 07:23 | 39.52665 | 5.99495 | 34032 ft | 480 kts | 343° |
| 2026-05-04 07:23 | 39.59287 | 5.98317 | 34027 ft | 480 kts | 343° |
| 2026-05-04 07:24 | 39.65910 | 5.97138 | 34047 ft | 480 kts | 343° |
| 2026-05-04 07:24 | 39.72523 | 5.95958 | 34031 ft | 480 kts | 343° |
| 2026-05-04 07:26 | 39.99042 | 5.91206 | 34029 ft | 482 kts | 343° |
| 2026-05-04 07:27 | 40.05654 | 5.90017 | 34027 ft | 482 kts | 343° |
| 2026-05-04 07:27 | 40.12301 | 5.88818 | 34041 ft | 483 kts | 343° |
| 2026-05-04 07:28 | 40.18973 | 5.87611 | 34023 ft | 484 kts | 343° |
| 2026-05-04 07:28 | 40.25640 | 5.86408 | 34022 ft | 484 kts | 343° |
| 2026-05-04 07:29 | 40.32318 | 5.85201 | 34034 ft | 484 kts | 343° |
| 2026-05-04 07:29 | 40.39003 | 5.83988 | 34025 ft | 485 kts | 344° |
| 2026-05-04 07:30 | 40.45686 | 5.82784 | 34026 ft | 485 kts | 345° |
| 2026-05-04 07:30 | 40.52407 | 5.81704 | 34027 ft | 486 kts | 345° |
| 2026-05-04 07:31 | 40.59124 | 5.80655 | 34022 ft | 486 kts | 345° |
| 2026-05-04 07:33 | 40.86002 | 5.76393 | 34018 ft | 486 kts | 346° |
| 2026-05-04 07:33 | 40.92736 | 5.75324 | 34016 ft | 486 kts | 346° |
| 2026-05-04 07:34 | 40.99463 | 5.74251 | 34029 ft | 486 kts | 346° |
| 2026-05-04 07:34 | 41.06178 | 5.73172 | 34024 ft | 486 kts | 346° |
| 2026-05-04 07:35 | 41.12896 | 5.72097 | 34016 ft | 486 kts | 346° |
| 2026-05-04 07:35 | 41.19626 | 5.71017 | 34025 ft | 486 kts | 346° |
| 2026-05-04 07:36 | 41.26319 | 5.69934 | 34026 ft | 487 kts | 346° |
| 2026-05-04 07:38 | 41.53225 | 5.65584 | 34017 ft | 487 kts | 347° |
| 2026-05-04 07:38 | 41.59951 | 5.64495 | 34018 ft | 487 kts | 347° |
| 2026-05-04 07:39 | 41.66675 | 5.63398 | 34023 ft | 487 kts | 347° |
| 2026-05-04 07:39 | 41.73419 | 5.62303 | 34014 ft | 488 kts | 347° |
| 2026-05-04 07:40 | 41.80148 | 5.61180 | 34013 ft | 487 kts | 346° |
| 2026-05-04 07:40 | 41.86817 | 5.59891 | 34025 ft | 487 kts | 346° |
| 2026-05-04 07:41 | 41.93530 | 5.58580 | 34016 ft | 488 kts | 346° |
| 2026-05-04 07:41 | 42.00259 | 5.57281 | 34016 ft | 488 kts | 346° |
| 2026-05-04 07:42 | 42.06991 | 5.55986 | 34041 ft | 488 kts | 346° |
| 2026-05-04 07:42 | 42.13718 | 5.54690 | 34021 ft | 489 kts | 346° |
| 2026-05-04 07:43 | 42.20449 | 5.53393 | 34020 ft | 489 kts | 346° |
| 2026-05-04 07:43 | 42.27182 | 5.52092 | 34023 ft | 489 kts | 346° |
| 2026-05-04 07:44 | 42.33884 | 5.50796 | 34021 ft | 489 kts | 346° |
| 2026-05-04 07:44 | 42.40627 | 5.49487 | 34020 ft | 490 kts | 346° |
| 2026-05-04 07:45 | 42.47380 | 5.48173 | 34021 ft | 490 kts | 346° |
| 2026-05-04 07:45 | 42.54126 | 5.46859 | 34029 ft | 490 kts | 346° |
| 2026-05-04 07:46 | 42.60878 | 5.45540 | 34029 ft | 490 kts | 346° |
| 2026-05-04 07:46 | 42.67635 | 5.44218 | 34020 ft | 490 kts | 346° |
| 2026-05-04 07:47 | 42.74382 | 5.42896 | 34023 ft | 490 kts | 346° |
| 2026-05-04 07:49 | 43.01396 | 5.37572 | 34029 ft | 491 kts | 346° |
| 2026-05-04 07:49 | 43.08168 | 5.36235 | 34023 ft | 491 kts | 346° |
| 2026-05-04 07:50 | 43.14931 | 5.34896 | 34024 ft | 492 kts | 346° |
| 2026-05-04 07:50 | 43.21743 | 5.33583 | 34018 ft | 493 kts | 348° |
| 2026-05-04 07:51 | 43.28570 | 5.32943 | 34026 ft | 499 kts | 353° |
| 2026-05-04 07:51 | 43.35523 | 5.32141 | 34024 ft | 496 kts | 347° |
| 2026-05-04 07:52 | 43.42304 | 5.30320 | 34022 ft | 491 kts | 340° |
| 2026-05-04 07:52 | 43.48773 | 5.27620 | 34008 ft | 488 kts | 336° |
| 2026-05-04 07:54 | 43.74597 | 5.15698 | 34022 ft | 489 kts | 336° |
| 2026-05-04 07:55 | 43.81027 | 5.12734 | 34022 ft | 490 kts | 336° |
| 2026-05-04 07:55 | 43.87490 | 5.09752 | 34022 ft | 490 kts | 336° |
| 2026-05-04 07:56 | 43.93952 | 5.06758 | 34020 ft | 490 kts | 337° |
| 2026-05-04 07:56 | 44.00433 | 5.03748 | 34025 ft | 491 kts | 337° |
| 2026-05-04 07:57 | 44.06918 | 5.00735 | 34043 ft | 491 kts | 337° |
| 2026-05-04 07:57 | 44.13388 | 4.97718 | 34057 ft | 492 kts | 337° |
| 2026-05-04 07:58 | 44.19925 | 4.94661 | 34063 ft | 496 kts | 337° |
| 2026-05-04 07:58 | 44.26477 | 4.91596 | 34050 ft | 497 kts | 337° |
| 2026-05-04 07:59 | 44.33034 | 4.88521 | 34071 ft | 497 kts | 337° |
| 2026-05-04 07:59 | 44.39617 | 4.85425 | 34073 ft | 499 kts | 337° |
| 2026-05-04 08:00 | 44.46201 | 4.82329 | 34067 ft | 499 kts | 337° |
| 2026-05-04 08:02 | 44.73541 | 4.73887 | 34053 ft | 507 kts | 348° |
| 2026-05-04 08:02 | 44.80509 | 4.72361 | 34050 ft | 507 kts | 348° |
| 2026-05-04 08:03 | 44.87487 | 4.70813 | 34051 ft | 507 kts | 348° |
| 2026-05-04 08:03 | 44.94467 | 4.69252 | 34054 ft | 509 kts | 348° |
| 2026-05-04 08:04 | 45.01460 | 4.67691 | 34055 ft | 510 kts | 348° |
| 2026-05-04 08:04 | 45.08469 | 4.66127 | 34050 ft | 510 kts | 348° |
| 2026-05-04 08:05 | 45.15491 | 4.64552 | 34040 ft | 512 kts | 348° |
| 2026-05-04 08:05 | 45.22544 | 4.62955 | 34035 ft | 513 kts | 348° |
| 2026-05-04 08:06 | 45.28396 | 4.61615 | 34047 ft | 511 kts | 347° |
| 2026-05-04 08:06 | 45.35414 | 4.60000 | 34030 ft | 512 kts | 348° |
| 2026-05-04 08:08 | 45.63620 | 4.53518 | 34011 ft | 514 kts | 348° |
| 2026-05-04 08:11 | 45.95381 | 4.46115 | 34009 ft | 515 kts | 347° |
| 2026-05-04 08:11 | 46.05997 | 4.43626 | 33997 ft | 515 kts | 347° |
| 2026-05-04 08:12 | 46.13067 | 4.41969 | 33996 ft | 515 kts | 347° |
| 2026-05-04 08:12 | 46.20144 | 4.40306 | 33997 ft | 514 kts | 347° |
| 2026-05-04 08:13 | 46.27207 | 4.38622 | 34012 ft | 514 kts | 346° |
| 2026-05-04 08:13 | 46.34123 | 4.36403 | 34003 ft | 512 kts | 342° |
| 2026-05-04 08:14 | 46.41086 | 4.33923 | 33990 ft | 512 kts | 342° |
| 2026-05-04 08:16 | 46.63339 | 4.26049 | 33990 ft | 512 kts | 342° |
| 2026-05-04 08:16 | 46.70260 | 4.23599 | 33997 ft | 512 kts | 342° |
| 2026-05-04 08:17 | 46.77180 | 4.21143 | 33987 ft | 512 kts | 342° |
| 2026-05-04 08:17 | 46.84111 | 4.18678 | 33995 ft | 512 kts | 342° |
| 2026-05-04 08:19 | 47.11569 | 4.07782 | 34007 ft | 509 kts | 334° |
| 2026-05-04 08:20 | 47.18113 | 4.03895 | 33990 ft | 510 kts | 333° |
| 2026-05-04 08:20 | 47.24715 | 3.99941 | 33992 ft | 510 kts | 333° |
| 2026-05-04 08:21 | 47.31297 | 3.96022 | 33993 ft | 510 kts | 333° |
| 2026-05-04 08:21 | 47.37858 | 3.92120 | 33985 ft | 510 kts | 333° |
| 2026-05-04 08:22 | 47.44434 | 3.88199 | 33984 ft | 510 kts | 333° |
| 2026-05-04 08:24 | 47.70738 | 3.72387 | 33987 ft | 509 kts | 333° |
| 2026-05-04 08:24 | 47.77253 | 3.68449 | 33987 ft | 508 kts | 333° |
| 2026-05-04 08:25 | 47.83876 | 3.64438 | 33979 ft | 508 kts | 333° |
| 2026-05-04 08:25 | 47.90426 | 3.60463 | 33983 ft | 508 kts | 333° |
| 2026-05-04 08:27 | 48.16520 | 3.44421 | 33979 ft | 507 kts | 333° |
| 2026-05-04 08:28 | 48.23041 | 3.40389 | 34004 ft | 507 kts | 333° |
| 2026-05-04 08:28 | 48.29576 | 3.36338 | 33990 ft | 507 kts | 333° |
| 2026-05-04 08:29 | 48.36102 | 3.32287 | 33982 ft | 507 kts | 333° |
| 2026-05-04 08:31 | 48.62126 | 3.15717 | 34001 ft | 507 kts | 332° |
| 2026-05-04 08:33 | 48.88005 | 2.98285 | 33983 ft | 507 kts | 326° |
| 2026-05-04 08:35 | 49.12428 | 2.76786 | 33989 ft | 506 kts | 324° |
| 2026-05-04 08:35 | 49.18523 | 2.71400 | 33986 ft | 506 kts | 324° |
| 2026-05-04 08:37 | 49.39933 | 2.52366 | 33984 ft | 507 kts | 324° |
| 2026-05-04 08:38 | 49.46041 | 2.46908 | 33985 ft | 507 kts | 324° |
| 2026-05-04 08:38 | 49.52139 | 2.41444 | 33996 ft | 507 kts | 325° |
| 2026-05-04 08:40 | 49.76864 | 2.20471 | 33994 ft | 507 kts | 327° |
| 2026-05-04 08:41 | 49.83049 | 2.15198 | 33990 ft | 507 kts | 327° |
| 2026-05-04 08:41 | 49.89242 | 2.09897 | 33988 ft | 507 kts | 326° |
| 2026-05-04 08:42 | 49.95428 | 2.04584 | 33995 ft | 507 kts | 326° |
| 2026-05-04 08:42 | 50.01558 | 1.99308 | 33990 ft | 506 kts | 326° |
| 2026-05-04 08:43 | 50.07724 | 1.93980 | 33989 ft | 506 kts | 326° |
| 2026-05-04 08:43 | 50.13783 | 1.88414 | 33987 ft | 503 kts | 322° |
| 2026-05-04 08:44 | 50.19391 | 1.81963 | 34024 ft | 497 kts | 315° |
| 2026-05-04 08:46 | 50.39067 | 1.52255 | 30821 ft | 501 kts | 311° |
| 2026-05-04 08:46 | 50.41570 | 1.48411 | 29996 ft | 503 kts | 311° |
| 2026-05-04 08:46 | 50.44079 | 1.44561 | 29021 ft | 504 kts | 311° |
| 2026-05-04 08:46 | 50.46581 | 1.40709 | 28336 ft | 501 kts | 311° |
| 2026-05-04 08:47 | 50.49041 | 1.36892 | 27863 ft | 493 kts | 310° |
| 2026-05-04 08:47 | 50.51381 | 1.33027 | 27355 ft | 485 kts | 309° |
| 2026-05-04 08:47 | 50.53689 | 1.29115 | 26866 ft | 478 kts | 308° |
| 2026-05-04 08:47 | 50.55904 | 1.25333 | 26389 ft | 471 kts | 308° |
| 2026-05-04 08:48 | 50.58131 | 1.21593 | 25867 ft | 467 kts | 310° |
| 2026-05-04 08:48 | 50.60405 | 1.17951 | 25316 ft | 463 kts | 311° |
| 2026-05-04 08:48 | 50.62672 | 1.14371 | 24782 ft | 459 kts | 311° |
| 2026-05-04 08:48 | 50.64924 | 1.10824 | 24266 ft | 455 kts | 311° |
| 2026-05-04 08:49 | 50.67147 | 1.07311 | 23785 ft | 450 kts | 311° |
| 2026-05-04 08:50 | 50.79369 | 0.87907 | 20461 ft | 430 kts | 313° |
| 2026-05-04 08:50 | 50.81458 | 0.84577 | 20062 ft | 423 kts | 313° |
| 2026-05-04 08:51 | 50.83514 | 0.81294 | 19686 ft | 416 kts | 312° |
| 2026-05-04 08:51 | 50.85533 | 0.78064 | 19330 ft | 408 kts | 312° |
| 2026-05-04 08:51 | 50.87508 | 0.74897 | 19013 ft | 401 kts | 312° |
| 2026-05-04 08:51 | 50.89461 | 0.71761 | 18671 ft | 394 kts | 312° |
| 2026-05-04 08:52 | 50.91367 | 0.68699 | 18331 ft | 387 kts | 312° |
| 2026-05-04 08:52 | 50.93238 | 0.65688 | 18140 ft | 377 kts | 312° |
| 2026-05-04 08:52 | 50.95046 | 0.62777 | 18055 ft | 363 kts | 312° |
| 2026-05-04 08:52 | 50.96804 | 0.59942 | 17990 ft | 349 kts | 312° |
| 2026-05-04 08:53 | 50.98486 | 0.57227 | 17809 ft | 340 kts | 312° |
| 2026-05-04 08:54 | 51.09657 | 0.39356 | 15370 ft | 308 kts | 314° |
| 2026-05-04 08:55 | 51.11200 | 0.37026 | 15013 ft | 304 kts | 314° |
| 2026-05-04 08:55 | 51.12734 | 0.34701 | 14511 ft | 304 kts | 314° |
| 2026-05-04 08:55 | 51.14255 | 0.32386 | 14133 ft | 301 kts | 314° |
| 2026-05-04 08:55 | 51.15774 | 0.30065 | 13779 ft | 296 kts | 314° |
| 2026-05-04 08:57 | 51.26004 | 0.14366 | 10353 ft | 278 kts | 314° |
| 2026-05-04 09:01 | 51.33834 | -0.19712 | 6571 ft | 229 kts | 272° |
| 2026-05-04 09:01 | 51.34115 | -0.22270 | 6312 ft | 227 kts | 297° |
| 2026-05-04 09:01 | 51.35151 | -0.24104 | 6048 ft | 224 kts | 332° |
| 2026-05-04 09:01 | 51.36637 | -0.24728 | 5790 ft | 222 kts | 4° |
| 2026-05-04 09:02 | 51.38088 | -0.24005 | 5531 ft | 218 kts | 36° |
| 2026-05-04 09:02 | 51.39074 | -0.22221 | 5313 ft | 214 kts | 67° |
| 2026-05-04 09:02 | 51.39361 | -0.19878 | 5071 ft | 210 kts | 91° |
| 2026-05-04 09:02 | 51.39392 | -0.17536 | 4772 ft | 209 kts | 77° |
| 2026-05-04 09:03 | 51.39912 | -0.15377 | 4449 ft | 207 kts | 56° |
| 2026-05-04 09:03 | 51.40901 | -0.13671 | 4148 ft | 206 kts | 27° |
| 2026-05-04 09:03 | 51.42297 | -0.13149 | 3830 ft | 205 kts | 351° |
| 2026-05-04 09:03 | 51.43601 | -0.13950 | 3584 ft | 205 kts | 329° |
| 2026-05-04 09:04 | 51.44800 | -0.15249 | 3389 ft | 202 kts | 322° |
| 2026-05-04 09:04 | 51.45821 | -0.16764 | 3212 ft | 197 kts | 313° |
| 2026-05-04 09:04 | 51.46642 | -0.18507 | 2979 ft | 194 kts | 300° |
| 2026-05-04 09:04 | 51.47160 | -0.20544 | 2942 ft | 192 kts | 288° |
| 2026-05-04 09:05 | 51.47509 | -0.22629 | 2859 ft | 192 kts | 282° |
| 2026-05-04 09:05 | 51.47704 | -0.24735 | 2636 ft | 190 kts | 275° |
| 2026-05-04 09:05 | 51.47795 | -0.26867 | 2308 ft | 194 kts | 273° |
| 2026-05-04 09:05 | 51.47830 | -0.29121 | 1895 ft | 201 kts | 271° |
| 2026-05-04 09:06 | 51.47820 | -0.31389 | 1591 ft | 202 kts | 270° |
| 2026-05-04 09:07 | 51.47765 | -0.44899 | 97 ft | 140 kts | 270° |
| 2026-05-04 09:08 | 51.47760 | -0.46212 | 98 ft | 85 kts | 269° |
| 2026-05-04 09:08 | 51.47756 | -0.46910 | 100 ft | 47 kts | 269° |
| 2026-05-04 09:08 | 51.47754 | -0.47300 | 97 ft | 20 kts | 263° |
| 2026-05-04 09:08 | 51.47667 | -0.47388 | 97 ft | 12 kts | 182° |
| 2026-05-04 09:09 | 51.47616 | -0.47388 | 96 ft | 8 kts | 171° |
| 2026-05-04 09:09 | 51.47582 | -0.47311 | 98 ft | 11 kts | 92° |
| 2026-05-04 09:09 | 51.47582 | -0.47212 | 98 ft | 9 kts | 89° |
| 2026-05-04 09:09 | 51.47582 | -0.47087 | 98 ft | 13 kts | 89° |
| 2026-05-04 09:10 | 51.47583 | -0.46930 | 98 ft | 16 kts | 89° |
| 2026-05-04 09:10 | 51.47592 | -0.46728 | 95 ft | 19 kts | 88° |
| 2026-05-04 09:10 | 51.47593 | -0.46485 | 95 ft | 22 kts | 89° |
| 2026-05-04 09:10 | 51.47594 | -0.46262 | 98 ft | 20 kts | 89° |
| 2026-05-04 09:11 | 51.47595 | -0.46015 | 98 ft | 20 kts | 90° |
| 2026-05-04 09:11 | 51.47595 | -0.45989 | 98 ft | 21 kts | 90° |
| 2026-05-04 09:11 | 51.47595 | -0.45931 | 98 ft | 21 kts | 90° |
| 2026-05-04 09:11 | 51.47596 | -0.45766 | 98 ft | 15 kts | 89° |
| 2026-05-04 09:12 | 51.47596 | -0.45618 | 98 ft | 9 kts | 90° |
| 2026-05-04 09:14 | 51.47499 | -0.44592 | 97 ft | 11 kts | 126° |
| 2026-05-04 09:14 | 51.47418 | -0.44558 | 94 ft | 14 kts | 181° |
| 2026-05-04 09:14 | 51.47350 | -0.44546 | 97 ft | 7 kts | 142° |
| 2026-05-04 09:14 | 51.47340 | -0.44490 | 96 ft | 2 kts | 92° |
| 2026-05-04 09:15 | 51.47340 | -0.44474 | 97 ft | 1 kts | 89° |
| 2026-05-04 09:15 | 51.47340 | -0.44454 | 97 ft | 0 kts | 89° |
| 2026-05-04 09:15 | 51.47340 | -0.44442 | 97 ft | 2 kts | 89° |
| 2026-05-04 09:15 | 51.47340 | -0.44429 | 97 ft | 0 kts | 90° |
| 2026-05-04 09:17 | 51.47340 | -0.44426 | 97 ft | 0 kts | 90° |